sensor_id;sensor_type;location;lat;lon;timestamp;temperature;humidity
13992;DHT22;7070;53.586;9.692;2023-05-29T00:00:40;11.10;68.90
13992;DHT22;7070;53.586;9.692;2023-05-29T00:03:09;11.10;69.10
13992;DHT22;7070;53.586;9.692;2023-05-29T00:05:36;11.10;69.20
13992;DHT22;7070;53.586;9.692;2023-05-29T00:08:03;10.90;69.10
13992;DHT22;7070;53.586;9.692;2023-05-29T00:10:30;10.90;69.20
13992;DHT22;7070;53.586;9.692;2023-05-29T00:12:57;10.90;69.30
13992;DHT22;7070;53.586;9.692;2023-05-29T00:15:26;10.80;69.30
13992;DHT22;7070;53.586;9.692;2023-05-29T00:17:53;10.70;69.40
13992;DHT22;7070;53.586;9.692;2023-05-29T00:20:22;10.70;69.50
13992;DHT22;7070;53.586;9.692;2023-05-29T00:22:48;10.70;69.50
13992;DHT22;7070;53.586;9.692;2023-05-29T00:25:16;10.70;69.60
13992;DHT22;7070;53.586;9.692;2023-05-29T00:27:42;10.70;69.50
13992;DHT22;7070;53.586;9.692;2023-05-29T00:30:10;10.60;69.50
13992;DHT22;7070;53.586;9.692;2023-05-29T00:32:37;10.60;69.40
13992;DHT22;7070;53.586;9.692;2023-05-29T00:35:04;10.50;69.30
13992;DHT22;7070;53.586;9.692;2023-05-29T00:37:33;10.40;69.10
13992;DHT22;7070;53.586;9.692;2023-05-29T00:40:00;10.30;69.10
13992;DHT22;7070;53.586;9.692;2023-05-29T00:42:26;10.30;70.00
13992;DHT22;7070;53.586;9.692;2023-05-29T00:44:53;10.20;69.30
13992;DHT22;7070;53.586;9.692;2023-05-29T00:47:20;10.20;69.40
13992;DHT22;7070;53.586;9.692;2023-05-29T00:49:47;10.10;69.50
13992;DHT22;7070;53.586;9.692;2023-05-29T00:52:17;10.00;69.40
13992;DHT22;7070;53.586;9.692;2023-05-29T00:54:45;10.00;69.50
13992;DHT22;7070;53.586;9.692;2023-05-29T00:57:13;9.90;70.60
13992;DHT22;7070;53.586;9.692;2023-05-29T00:59:41;9.90;70.50
13992;DHT22;7070;53.586;9.692;2023-05-29T01:02:08;9.80;70.50
13992;DHT22;7070;53.586;9.692;2023-05-29T01:04:36;9.80;70.50
13992;DHT22;7070;53.586;9.692;2023-05-29T01:07:03;9.80;70.50
13992;DHT22;7070;53.586;9.692;2023-05-29T01:09:30;9.80;70.50
13992;DHT22;7070;53.586;9.692;2023-05-29T01:12:07;9.80;70.50
13992;DHT22;7070;53.586;9.692;2023-05-29T01:14:42;9.70;70.30
13992;DHT22;7070;53.586;9.692;2023-05-29T01:17:17;9.70;70.30
13992;DHT22;7070;53.586;9.692;2023-05-29T01:20:02;9.60;70.10
13992;DHT22;7070;53.586;9.692;2023-05-29T01:22:40;9.70;70.20
13992;DHT22;7070;53.586;9.692;2023-05-29T01:25:19;9.60;70.20
13992;DHT22;7070;53.586;9.692;2023-05-29T01:27:49;9.60;70.80
13992;DHT22;7070;53.586;9.692;2023-05-29T01:30:18;9.50;70.00
13992;DHT22;7070;53.586;9.692;2023-05-29T01:32:46;9.40;70.00
13992;DHT22;7070;53.586;9.692;2023-05-29T01:35:13;9.40;70.00
13992;DHT22;7070;53.586;9.692;2023-05-29T01:37:40;9.40;69.90
13992;DHT22;7070;53.586;9.692;2023-05-29T01:40:08;9.30;69.80
13992;DHT22;7070;53.586;9.692;2023-05-29T01:42:35;9.30;69.80
13992;DHT22;7070;53.586;9.692;2023-05-29T01:45:04;9.20;69.80
13992;DHT22;7070;53.586;9.692;2023-05-29T01:47:32;9.20;69.90
13992;DHT22;7070;53.586;9.692;2023-05-29T01:49:59;9.20;70.10
13992;DHT22;7070;53.586;9.692;2023-05-29T01:52:27;9.00;70.00
13992;DHT22;7070;53.586;9.692;2023-05-29T01:54:53;9.00;70.80
13992;DHT22;7070;53.586;9.692;2023-05-29T01:57:21;8.90;70.00
13992;DHT22;7070;53.586;9.692;2023-05-29T01:59:48;9.00;70.30
13992;DHT22;7070;53.586;9.692;2023-05-29T02:02:17;8.90;70.30
13992;DHT22;7070;53.586;9.692;2023-05-29T02:04:43;8.80;70.30
13992;DHT22;7070;53.586;9.692;2023-05-29T02:07:10;8.80;70.40
13992;DHT22;7070;53.586;9.692;2023-05-29T02:09:38;8.70;70.50
13992;DHT22;7070;53.586;9.692;2023-05-29T02:12:05;8.70;70.50
13992;DHT22;7070;53.586;9.692;2023-05-29T02:14:33;8.70;70.50
13992;DHT22;7070;53.586;9.692;2023-05-29T02:17:00;8.60;70.50
13992;DHT22;7070;53.586;9.692;2023-05-29T02:19:29;8.70;70.80
13992;DHT22;7070;53.586;9.692;2023-05-29T02:21:56;8.60;70.70
13992;DHT22;7070;53.586;9.692;2023-05-29T02:24:23;8.60;70.80
13992;DHT22;7070;53.586;9.692;2023-05-29T02:26:50;8.60;70.80
13992;DHT22;7070;53.586;9.692;2023-05-29T02:29:17;8.50;70.80
13992;DHT22;7070;53.586;9.692;2023-05-29T02:31:44;8.50;70.80
13992;DHT22;7070;53.586;9.692;2023-05-29T02:34:11;8.50;70.90
13992;DHT22;7070;53.586;9.692;2023-05-29T02:36:39;8.50;70.90
13992;DHT22;7070;53.586;9.692;2023-05-29T02:39:06;8.50;71.00
13992;DHT22;7070;53.586;9.692;2023-05-29T02:41:33;8.40;70.90
13992;DHT22;7070;53.586;9.692;2023-05-29T02:43:59;8.40;71.50
13992;DHT22;7070;53.586;9.692;2023-05-29T02:46:26;8.30;70.80
13992;DHT22;7070;53.586;9.692;2023-05-29T02:48:53;8.30;70.90
13992;DHT22;7070;53.586;9.692;2023-05-29T02:51:20;8.20;70.90
13992;DHT22;7070;53.586;9.692;2023-05-29T02:53:48;8.20;71.00
13992;DHT22;7070;53.586;9.692;2023-05-29T02:56:15;8.20;71.00
13992;DHT22;7070;53.586;9.692;2023-05-29T02:58:42;8.20;71.10
13992;DHT22;7070;53.586;9.692;2023-05-29T03:01:09;8.10;71.10
13992;DHT22;7070;53.586;9.692;2023-05-29T03:03:36;8.00;70.90
13992;DHT22;7070;53.586;9.692;2023-05-29T03:06:03;8.00;70.80
13992;DHT22;7070;53.586;9.692;2023-05-29T03:08:31;7.90;70.80
13992;DHT22;7070;53.586;9.692;2023-05-29T03:11:00;7.90;70.80
13992;DHT22;7070;53.586;9.692;2023-05-29T03:13:28;7.80;70.80
13992;DHT22;7070;53.586;9.692;2023-05-29T03:15:55;7.80;70.90
13992;DHT22;7070;53.586;9.692;2023-05-29T03:18:22;7.70;70.90
13992;DHT22;7070;53.586;9.692;2023-05-29T03:20:49;7.70;70.90
13992;DHT22;7070;53.586;9.692;2023-05-29T03:23:16;7.60;70.90
13992;DHT22;7070;53.586;9.692;2023-05-29T03:25:43;7.60;71.00
13992;DHT22;7070;53.586;9.692;2023-05-29T03:28:11;7.50;71.10
13992;DHT22;7070;53.586;9.692;2023-05-29T03:30:38;7.50;71.10
13992;DHT22;7070;53.586;9.692;2023-05-29T03:33:05;7.50;71.10
13992;DHT22;7070;53.586;9.692;2023-05-29T03:35:32;7.50;71.30
13992;DHT22;7070;53.586;9.692;2023-05-29T03:37:59;7.50;71.30
13992;DHT22;7070;53.586;9.692;2023-05-29T03:40:26;7.50;71.40
13992;DHT22;7070;53.586;9.692;2023-05-29T03:42:53;7.50;71.50
13992;DHT22;7070;53.586;9.692;2023-05-29T03:45:21;7.50;72.30
13992;DHT22;7070;53.586;9.692;2023-05-29T03:47:48;7.50;71.70
13992;DHT22;7070;53.586;9.692;2023-05-29T03:50:15;7.50;71.90
13992;DHT22;7070;53.586;9.692;2023-05-29T03:52:42;7.50;72.00
13992;DHT22;7070;53.586;9.692;2023-05-29T03:55:09;7.50;72.00
13992;DHT22;7070;53.586;9.692;2023-05-29T03:57:40;7.50;72.10
13992;DHT22;7070;53.586;9.692;2023-05-29T04:00:08;7.60;72.20
13992;DHT22;7070;53.586;9.692;2023-05-29T04:02:38;7.60;72.20
13992;DHT22;7070;53.586;9.692;2023-05-29T04:05:06;7.70;72.30
13992;DHT22;7070;53.586;9.692;2023-05-29T04:07:33;7.70;72.30
13992;DHT22;7070;53.586;9.692;2023-05-29T04:10:00;7.70;72.30
13992;DHT22;7070;53.586;9.692;2023-05-29T04:12:26;7.80;72.50
13992;DHT22;7070;53.586;9.692;2023-05-29T04:14:54;7.80;72.50
13992;DHT22;7070;53.586;9.692;2023-05-29T04:17:21;7.80;72.50
13992;DHT22;7070;53.586;9.692;2023-05-29T04:19:49;7.80;72.70
13992;DHT22;7070;53.586;9.692;2023-05-29T04:22:16;7.90;72.70
13992;DHT22;7070;53.586;9.692;2023-05-29T04:24:42;8.00;72.90
13992;DHT22;7070;53.586;9.692;2023-05-29T04:27:09;8.00;73.00
13992;DHT22;7070;53.586;9.692;2023-05-29T04:29:38;8.10;73.20
13992;DHT22;7070;53.586;9.692;2023-05-29T04:32:06;8.10;73.40
13992;DHT22;7070;53.586;9.692;2023-05-29T04:34:34;8.20;73.80
13992;DHT22;7070;53.586;9.692;2023-05-29T04:37:02;8.40;75.00
13992;DHT22;7070;53.586;9.692;2023-05-29T04:39:29;8.60;74.60
13992;DHT22;7070;53.586;9.692;2023-05-29T04:41:56;8.80;74.90
13992;DHT22;7070;53.586;9.692;2023-05-29T04:44:24;9.10;75.20
13992;DHT22;7070;53.586;9.692;2023-05-29T04:46:52;9.40;75.30
13992;DHT22;7070;53.586;9.692;2023-05-29T04:49:19;9.60;75.20
13992;DHT22;7070;53.586;9.692;2023-05-29T04:51:47;9.80;74.90
13992;DHT22;7070;53.586;9.692;2023-05-29T04:54:15;10.10;73.60
13992;DHT22;7070;53.586;9.692;2023-05-29T04:56:42;10.30;73.40
13992;DHT22;7070;53.586;9.692;2023-05-29T04:59:09;10.60;73.30
13992;DHT22;7070;53.586;9.692;2023-05-29T05:01:36;10.70;73.10
13992;DHT22;7070;53.586;9.692;2023-05-29T05:04:03;10.90;72.90
13992;DHT22;7070;53.586;9.692;2023-05-29T05:06:30;11.10;72.60
13992;DHT22;7070;53.586;9.692;2023-05-29T05:08:57;11.30;72.40
13992;DHT22;7070;53.586;9.692;2023-05-29T05:11:25;11.50;72.30
13992;DHT22;7070;53.586;9.692;2023-05-29T05:13:52;11.70;72.80
13992;DHT22;7070;53.586;9.692;2023-05-29T05:16:19;11.90;71.70
13992;DHT22;7070;53.586;9.692;2023-05-29T05:18:45;12.00;71.10
13992;DHT22;7070;53.586;9.692;2023-05-29T05:21:12;12.20;70.70
13992;DHT22;7070;53.586;9.692;2023-05-29T05:23:40;12.40;70.40
13992;DHT22;7070;53.586;9.692;2023-05-29T05:26:07;12.50;70.00
13992;DHT22;7070;53.586;9.692;2023-05-29T05:28:35;12.70;69.60
13992;DHT22;7070;53.586;9.692;2023-05-29T05:31:02;12.80;69.70
13992;DHT22;7070;53.586;9.692;2023-05-29T05:33:28;12.80;68.60
13992;DHT22;7070;53.586;9.692;2023-05-29T05:35:55;13.00;68.40
13992;DHT22;7070;53.586;9.692;2023-05-29T05:38:22;13.00;68.70
13992;DHT22;7070;53.586;9.692;2023-05-29T05:40:49;13.10;67.80
13992;DHT22;7070;53.586;9.692;2023-05-29T05:43:16;13.10;67.50
13992;DHT22;7070;53.586;9.692;2023-05-29T05:45:44;13.20;67.10
13992;DHT22;7070;53.586;9.692;2023-05-29T05:48:11;13.30;66.90
13992;DHT22;7070;53.586;9.692;2023-05-29T05:50:38;13.40;66.90
13992;DHT22;7070;53.586;9.692;2023-05-29T05:53:05;13.40;67.00
13992;DHT22;7070;53.586;9.692;2023-05-29T05:55:32;14.50;67.80
13992;DHT22;7070;53.586;9.692;2023-05-29T05:57:59;13.50;66.10
13992;DHT22;7070;53.586;9.692;2023-05-29T06:00:25;13.60;65.70
13992;DHT22;7070;53.586;9.692;2023-05-29T06:02:55;13.60;65.60
13992;DHT22;7070;53.586;9.692;2023-05-29T06:05:22;13.70;65.60
13992;DHT22;7070;53.586;9.692;2023-05-29T06:07:48;13.60;65.40
13992;DHT22;7070;53.586;9.692;2023-05-29T06:10:15;13.70;65.40
13992;DHT22;7070;53.586;9.692;2023-05-29T06:12:42;13.80;65.40
13992;DHT22;7070;53.586;9.692;2023-05-29T06:15:09;13.80;65.10
13992;DHT22;7070;53.586;9.692;2023-05-29T06:17:36;13.80;65.00
13992;DHT22;7070;53.586;9.692;2023-05-29T06:20:05;13.80;64.70
13992;DHT22;7070;53.586;9.692;2023-05-29T06:22:35;13.80;64.70
13992;DHT22;7070;53.586;9.692;2023-05-29T06:25:02;13.80;64.70
13992;DHT22;7070;53.586;9.692;2023-05-29T06:27:30;13.90;64.80
13992;DHT22;7070;53.586;9.692;2023-05-29T06:29:57;13.90;64.80
13992;DHT22;7070;53.586;9.692;2023-05-29T06:32:24;14.00;64.40
13992;DHT22;7070;53.586;9.692;2023-05-29T06:34:51;14.00;64.20
13992;DHT22;7070;53.586;9.692;2023-05-29T06:37:19;14.00;65.10
13992;DHT22;7070;53.586;9.692;2023-05-29T06:39:46;14.10;64.10
13992;DHT22;7070;53.586;9.692;2023-05-29T06:42:13;14.10;63.90
13992;DHT22;7070;53.586;9.692;2023-05-29T06:44:40;14.20;63.80
13992;DHT22;7070;53.586;9.692;2023-05-29T06:47:06;14.20;63.60
13992;DHT22;7070;53.586;9.692;2023-05-29T06:49:33;14.20;63.50
13992;DHT22;7070;53.586;9.692;2023-05-29T06:52:00;14.20;63.90
13992;DHT22;7070;53.586;9.692;2023-05-29T06:54:29;14.20;63.00
13992;DHT22;7070;53.586;9.692;2023-05-29T06:56:55;14.20;63.00
13992;DHT22;7070;53.586;9.692;2023-05-29T06:59:22;14.20;63.10
13992;DHT22;7070;53.586;9.692;2023-05-29T07:01:49;14.20;63.20
13992;DHT22;7070;53.586;9.692;2023-05-29T07:04:16;14.20;63.10
13992;DHT22;7070;53.586;9.692;2023-05-29T07:06:43;14.10;63.00
13992;DHT22;7070;53.586;9.692;2023-05-29T07:09:10;14.10;63.30
13992;DHT22;7070;53.586;9.692;2023-05-29T07:11:38;14.10;63.10
13992;DHT22;7070;53.586;9.692;2023-05-29T07:14:05;14.10;63.10
13992;DHT22;7070;53.586;9.692;2023-05-29T07:16:32;14.10;63.00
13992;DHT22;7070;53.586;9.692;2023-05-29T07:18:59;14.10;63.00
13992;DHT22;7070;53.586;9.692;2023-05-29T07:21:26;14.10;62.90
13992;DHT22;7070;53.586;9.692;2023-05-29T07:23:53;14.10;62.90
13992;DHT22;7070;53.586;9.692;2023-05-29T07:26:19;14.10;63.10
13992;DHT22;7070;53.586;9.692;2023-05-29T07:28:49;14.10;63.10
13992;DHT22;7070;53.586;9.692;2023-05-29T07:31:16;14.10;62.90
13992;DHT22;7070;53.586;9.692;2023-05-29T07:33:43;14.20;63.10
13992;DHT22;7070;53.586;9.692;2023-05-29T07:36:10;14.20;63.80
13992;DHT22;7070;53.586;9.692;2023-05-29T07:38:38;14.20;63.00
13992;DHT22;7070;53.586;9.692;2023-05-29T07:41:05;14.30;63.20
13992;DHT22;7070;53.586;9.692;2023-05-29T07:43:31;14.30;63.00
13992;DHT22;7070;53.586;9.692;2023-05-29T07:46:00;14.30;62.50
13992;DHT22;7070;53.586;9.692;2023-05-29T07:48:27;14.30;62.40
13992;DHT22;7070;53.586;9.692;2023-05-29T07:50:53;14.40;62.40
13992;DHT22;7070;53.586;9.692;2023-05-29T07:53:20;14.30;63.30
13992;DHT22;7070;53.586;9.692;2023-05-29T07:55:47;14.30;62.90
13992;DHT22;7070;53.586;9.692;2023-05-29T07:58:14;14.30;63.00
13992;DHT22;7070;53.586;9.692;2023-05-29T08:00:43;14.30;62.90
13992;DHT22;7070;53.586;9.692;2023-05-29T08:03:11;14.30;63.00
13992;DHT22;7070;53.586;9.692;2023-05-29T08:05:38;14.40;63.40
13992;DHT22;7070;53.586;9.692;2023-05-29T08:08:05;14.30;63.40
13992;DHT22;7070;53.586;9.692;2023-05-29T08:10:32;14.40;63.70
13992;DHT22;7070;53.586;9.692;2023-05-29T08:12:59;14.40;63.60
13992;DHT22;7070;53.586;9.692;2023-05-29T08:15:25;14.50;63.60
13992;DHT22;7070;53.586;9.692;2023-05-29T08:17:52;14.50;63.50
13992;DHT22;7070;53.586;9.692;2023-05-29T08:20:20;14.50;63.40
13992;DHT22;7070;53.586;9.692;2023-05-29T08:22:47;14.50;63.30
13992;DHT22;7070;53.586;9.692;2023-05-29T08:25:14;14.60;63.40
13992;DHT22;7070;53.586;9.692;2023-05-29T08:27:41;14.70;63.60
13992;DHT22;7070;53.586;9.692;2023-05-29T08:30:09;14.70;63.70
13992;DHT22;7070;53.586;9.692;2023-05-29T08:32:37;14.80;63.80
13992;DHT22;7070;53.586;9.692;2023-05-29T08:35:04;14.80;63.50
13992;DHT22;7070;53.586;9.692;2023-05-29T08:37:32;14.80;63.00
13992;DHT22;7070;53.586;9.692;2023-05-29T08:39:59;14.90;63.00
13992;DHT22;7070;53.586;9.692;2023-05-29T08:42:29;14.90;63.20
13992;DHT22;7070;53.586;9.692;2023-05-29T08:45:03;14.90;63.10
13992;DHT22;7070;53.586;9.692;2023-05-29T08:47:33;14.90;62.90
13992;DHT22;7070;53.586;9.692;2023-05-29T08:50:01;14.90;62.90
13992;DHT22;7070;53.586;9.692;2023-05-29T08:52:29;15.00;62.90
13992;DHT22;7070;53.586;9.692;2023-05-29T08:55:02;15.00;63.30
13992;DHT22;7070;53.586;9.692;2023-05-29T08:57:30;15.00;63.60
13992;DHT22;7070;53.586;9.692;2023-05-29T08:59:57;15.10;63.90
13992;DHT22;7070;53.586;9.692;2023-05-29T09:02:24;15.10;63.50
13992;DHT22;7070;53.586;9.692;2023-05-29T09:04:51;15.20;63.50
13992;DHT22;7070;53.586;9.692;2023-05-29T09:07:20;15.20;63.30
13992;DHT22;7070;53.586;9.692;2023-05-29T09:09:48;15.30;63.50
13992;DHT22;7070;53.586;9.692;2023-05-29T09:12:16;15.30;63.70
13992;DHT22;7070;53.586;9.692;2023-05-29T09:14:44;15.30;63.60
13992;DHT22;7070;53.586;9.692;2023-05-29T09:17:12;15.40;63.70
13992;DHT22;7070;53.586;9.692;2023-05-29T09:19:41;15.40;63.60
13992;DHT22;7070;53.586;9.692;2023-05-29T09:22:08;15.50;63.50
13992;DHT22;7070;53.586;9.692;2023-05-29T09:24:37;15.50;63.40
13992;DHT22;7070;53.586;9.692;2023-05-29T09:27:05;15.60;63.20
13992;DHT22;7070;53.586;9.692;2023-05-29T09:29:37;15.60;62.90
13992;DHT22;7070;53.586;9.692;2023-05-29T09:32:07;15.60;63.00
13992;DHT22;7070;53.586;9.692;2023-05-29T09:34:35;15.70;63.00
13992;DHT22;7070;53.586;9.692;2023-05-29T09:37:03;15.70;63.00
13992;DHT22;7070;53.586;9.692;2023-05-29T09:39:46;15.80;63.20
13992;DHT22;7070;53.586;9.692;2023-05-29T09:42:13;15.70;63.40
13992;DHT22;7070;53.586;9.692;2023-05-29T09:44:42;15.80;63.70
13992;DHT22;7070;53.586;9.692;2023-05-29T09:47:09;15.90;63.70
13992;DHT22;7070;53.586;9.692;2023-05-29T09:49:41;16.00;63.60
13992;DHT22;7070;53.586;9.692;2023-05-29T09:52:10;16.00;63.30
13992;DHT22;7070;53.586;9.692;2023-05-29T09:54:41;16.10;63.40
13992;DHT22;7070;53.586;9.692;2023-05-29T09:57:12;16.20;63.60
13992;DHT22;7070;53.586;9.692;2023-05-29T09:59:39;16.30;63.60
13992;DHT22;7070;53.586;9.692;2023-05-29T10:02:11;16.40;63.30
13992;DHT22;7070;53.586;9.692;2023-05-29T10:04:39;16.40;63.00
13992;DHT22;7070;53.586;9.692;2023-05-29T10:07:09;16.40;62.80
13992;DHT22;7070;53.586;9.692;2023-05-29T10:09:41;16.50;62.80
13992;DHT22;7070;53.586;9.692;2023-05-29T10:12:11;16.50;62.90
13992;DHT22;7070;53.586;9.692;2023-05-29T10:14:38;16.60;62.90
13992;DHT22;7070;53.586;9.692;2023-05-29T10:17:07;16.60;62.90
13992;DHT22;7070;53.586;9.692;2023-05-29T10:19:37;16.60;62.80
13992;DHT22;7070;53.586;9.692;2023-05-29T10:22:05;16.60;62.50
13992;DHT22;7070;53.586;9.692;2023-05-29T10:24:35;16.70;62.60
13992;DHT22;7070;53.586;9.692;2023-05-29T10:27:04;16.70;62.90
13992;DHT22;7070;53.586;9.692;2023-05-29T10:29:36;16.70;62.80
13992;DHT22;7070;53.586;9.692;2023-05-29T10:32:20;16.80;63.20
13992;DHT22;7070;53.586;9.692;2023-05-29T10:34:56;16.90;63.50
13992;DHT22;7070;53.586;9.692;2023-05-29T10:37:33;17.00;63.00
13992;DHT22;7070;53.586;9.692;2023-05-29T10:40:04;17.00;63.00
13992;DHT22;7070;53.586;9.692;2023-05-29T10:42:43;17.10;63.00
13992;DHT22;7070;53.586;9.692;2023-05-29T10:45:10;17.10;63.40
13992;DHT22;7070;53.586;9.692;2023-05-29T10:47:38;17.20;63.20
13992;DHT22;7070;53.586;9.692;2023-05-29T10:50:06;17.20;63.20
13992;DHT22;7070;53.586;9.692;2023-05-29T10:52:34;17.30;62.80
13992;DHT22;7070;53.586;9.692;2023-05-29T10:55:01;17.40;62.30
13992;DHT22;7070;53.586;9.692;2023-05-29T10:57:30;17.40;62.20
13992;DHT22;7070;53.586;9.692;2023-05-29T11:00:06;17.50;62.30
13992;DHT22;7070;53.586;9.692;2023-05-29T11:02:39;17.50;62.20
13992;DHT22;7070;53.586;9.692;2023-05-29T11:05:23;17.50;61.70
13992;DHT22;7070;53.586;9.692;2023-05-29T11:07:55;17.50;62.00
13992;DHT22;7070;53.586;9.692;2023-05-29T11:10:44;17.50;61.80
13992;DHT22;7070;53.586;9.692;2023-05-29T11:13:23;17.60;62.00
13992;DHT22;7070;53.586;9.692;2023-05-29T11:16:11;17.60;62.10
13992;DHT22;7070;53.586;9.692;2023-05-29T11:18:40;17.60;62.00
13992;DHT22;7070;53.586;9.692;2023-05-29T11:21:29;17.70;61.60
13992;DHT22;7070;53.586;9.692;2023-05-29T11:23:58;17.70;61.90
13992;DHT22;7070;53.586;9.692;2023-05-29T11:26:29;17.70;61.70
13992;DHT22;7070;53.586;9.692;2023-05-29T11:28:58;17.80;61.80
13992;DHT22;7070;53.586;9.692;2023-05-29T11:31:26;17.80;62.60
13992;DHT22;7070;53.586;9.692;2023-05-29T11:33:59;17.80;61.50
13992;DHT22;7070;53.586;9.692;2023-05-29T11:36:27;17.90;61.40
13992;DHT22;7070;53.586;9.692;2023-05-29T11:38:54;17.90;61.40
13992;DHT22;7070;53.586;9.692;2023-05-29T11:41:21;17.90;61.30
13992;DHT22;7070;53.586;9.692;2023-05-29T11:43:58;18.00;61.50
13992;DHT22;7070;53.586;9.692;2023-05-29T11:46:25;18.10;61.40
13992;DHT22;7070;53.586;9.692;2023-05-29T11:48:53;18.00;60.80
13992;DHT22;7070;53.586;9.692;2023-05-29T11:51:20;18.10;61.00
13992;DHT22;7070;53.586;9.692;2023-05-29T11:53:49;18.10;61.10
13992;DHT22;7070;53.586;9.692;2023-05-29T11:56:18;18.10;60.80
13992;DHT22;7070;53.586;9.692;2023-05-29T11:58:46;18.20;60.70
13992;DHT22;7070;53.586;9.692;2023-05-29T12:01:16;18.20;60.50
13992;DHT22;7070;53.586;9.692;2023-05-29T12:03:44;18.30;60.60
13992;DHT22;7070;53.586;9.692;2023-05-29T12:06:12;18.30;60.20
13992;DHT22;7070;53.586;9.692;2023-05-29T12:08:39;18.30;60.10
13992;DHT22;7070;53.586;9.692;2023-05-29T12:11:08;18.30;60.20
13992;DHT22;7070;53.586;9.692;2023-05-29T12:13:34;18.40;60.60
13992;DHT22;7070;53.586;9.692;2023-05-29T12:16:04;18.40;60.90
13992;DHT22;7070;53.586;9.692;2023-05-29T12:18:32;18.40;60.50
13992;DHT22;7070;53.586;9.692;2023-05-29T12:21:00;18.50;59.90
13992;DHT22;7070;53.586;9.692;2023-05-29T12:23:28;18.60;59.40
13992;DHT22;7070;53.586;9.692;2023-05-29T12:25:55;18.60;59.60
13992;DHT22;7070;53.586;9.692;2023-05-29T12:28:25;18.60;59.10
13992;DHT22;7070;53.586;9.692;2023-05-29T12:30:58;18.60;59.30
13992;DHT22;7070;53.586;9.692;2023-05-29T12:33:27;18.60;59.40
13992;DHT22;7070;53.586;9.692;2023-05-29T12:35:54;18.60;59.40
13992;DHT22;7070;53.586;9.692;2023-05-29T12:38:23;18.60;59.60
13992;DHT22;7070;53.586;9.692;2023-05-29T12:40:50;18.70;59.90
13992;DHT22;7070;53.586;9.692;2023-05-29T12:43:17;18.70;60.40
13992;DHT22;7070;53.586;9.692;2023-05-29T12:45:45;18.80;60.50
13992;DHT22;7070;53.586;9.692;2023-05-29T12:48:12;18.80;60.20
13992;DHT22;7070;53.586;9.692;2023-05-29T12:50:40;18.90;60.20
13992;DHT22;7070;53.586;9.692;2023-05-29T12:53:08;19.00;59.60
13992;DHT22;7070;53.586;9.692;2023-05-29T12:55:36;19.00;59.60
13992;DHT22;7070;53.586;9.692;2023-05-29T12:58:04;19.00;59.40
13992;DHT22;7070;53.586;9.692;2023-05-29T13:00:33;19.10;59.40
13992;DHT22;7070;53.586;9.692;2023-05-29T13:03:01;19.10;59.60
13992;DHT22;7070;53.586;9.692;2023-05-29T13:05:28;19.10;59.50
13992;DHT22;7070;53.586;9.692;2023-05-29T13:07:55;19.10;59.40
13992;DHT22;7070;53.586;9.692;2023-05-29T13:10:25;19.20;59.20
13992;DHT22;7070;53.586;9.692;2023-05-29T13:12:53;19.20;59.20
13992;DHT22;7070;53.586;9.692;2023-05-29T13:15:21;19.20;59.30
13992;DHT22;7070;53.586;9.692;2023-05-29T13:17:48;19.30;59.50
13992;DHT22;7070;53.586;9.692;2023-05-29T13:20:17;19.30;59.60
13992;DHT22;7070;53.586;9.692;2023-05-29T13:22:45;19.30;59.70
13992;DHT22;7070;53.586;9.692;2023-05-29T13:25:15;19.40;59.70
13992;DHT22;7070;53.586;9.692;2023-05-29T13:27:44;19.40;59.80
13992;DHT22;7070;53.586;9.692;2023-05-29T13:30:12;19.50;59.60
13992;DHT22;7070;53.586;9.692;2023-05-29T13:32:40;19.50;59.50
13992;DHT22;7070;53.586;9.692;2023-05-29T13:35:07;19.50;59.30
13992;DHT22;7070;53.586;9.692;2023-05-29T13:37:37;19.50;59.30
13992;DHT22;7070;53.586;9.692;2023-05-29T13:40:05;19.60;59.60
13992;DHT22;7070;53.586;9.692;2023-05-29T13:42:32;19.60;59.00
13992;DHT22;7070;53.586;9.692;2023-05-29T13:44:59;19.60;58.70
13992;DHT22;7070;53.586;9.692;2023-05-29T13:47:26;19.60;58.30
13992;DHT22;7070;53.586;9.692;2023-05-29T13:49:54;19.60;58.50
13992;DHT22;7070;53.586;9.692;2023-05-29T13:52:21;19.60;58.40
13992;DHT22;7070;53.586;9.692;2023-05-29T13:54:49;19.70;58.20
13992;DHT22;7070;53.586;9.692;2023-05-29T13:57:16;19.70;57.50
13992;DHT22;7070;53.586;9.692;2023-05-29T13:59:43;19.70;56.90
13992;DHT22;7070;53.586;9.692;2023-05-29T14:02:11;19.70;56.90
13992;DHT22;7070;53.586;9.692;2023-05-29T14:04:39;19.70;57.20
13992;DHT22;7070;53.586;9.692;2023-05-29T14:07:08;19.70;57.20
13992;DHT22;7070;53.586;9.692;2023-05-29T14:09:34;19.70;56.40
13992;DHT22;7070;53.586;9.692;2023-05-29T14:12:03;19.60;56.50
13992;DHT22;7070;53.586;9.692;2023-05-29T14:14:32;19.60;57.00
13992;DHT22;7070;53.586;9.692;2023-05-29T14:16:59;19.60;57.30
13992;DHT22;7070;53.586;9.692;2023-05-29T14:19:26;19.70;57.50
13992;DHT22;7070;53.586;9.692;2023-05-29T14:21:53;19.70;57.40
13992;DHT22;7070;53.586;9.692;2023-05-29T14:24:20;19.70;57.20
13992;DHT22;7070;53.586;9.692;2023-05-29T14:26:47;19.80;57.20
13992;DHT22;7070;53.586;9.692;2023-05-29T14:29:15;19.80;57.10
13992;DHT22;7070;53.586;9.692;2023-05-29T14:31:43;19.80;57.10
13992;DHT22;7070;53.586;9.692;2023-05-29T14:34:11;19.90;56.70
13992;DHT22;7070;53.586;9.692;2023-05-29T14:36:38;19.90;56.50
13992;DHT22;7070;53.586;9.692;2023-05-29T14:39:06;19.90;56.70
13992;DHT22;7070;53.586;9.692;2023-05-29T14:41:33;19.90;56.90
13992;DHT22;7070;53.586;9.692;2023-05-29T14:44:01;19.90;56.40
13992;DHT22;7070;53.586;9.692;2023-05-29T14:46:29;19.90;56.60
13992;DHT22;7070;53.586;9.692;2023-05-29T14:48:57;19.90;55.70
13992;DHT22;7070;53.586;9.692;2023-05-29T14:51:24;19.90;55.90
13992;DHT22;7070;53.586;9.692;2023-05-29T14:53:52;19.80;55.70
13992;DHT22;7070;53.586;9.692;2023-05-29T14:56:19;19.90;55.90
13992;DHT22;7070;53.586;9.692;2023-05-29T14:58:46;19.80;55.70
13992;DHT22;7070;53.586;9.692;2023-05-29T15:01:13;19.80;54.90
13992;DHT22;7070;53.586;9.692;2023-05-29T15:03:41;19.80;55.10
13992;DHT22;7070;53.586;9.692;2023-05-29T15:06:09;19.70;54.80
13992;DHT22;7070;53.586;9.692;2023-05-29T15:08:37;19.70;54.10
13992;DHT22;7070;53.586;9.692;2023-05-29T15:11:05;19.70;54.50
13992;DHT22;7070;53.586;9.692;2023-05-29T15:13:33;19.70;54.60
13992;DHT22;7070;53.586;9.692;2023-05-29T15:16:00;19.70;54.80
13992;DHT22;7070;53.586;9.692;2023-05-29T15:18:28;19.60;54.90
13992;DHT22;7070;53.586;9.692;2023-05-29T15:20:56;19.60;54.30
13992;DHT22;7070;53.586;9.692;2023-05-29T15:23:24;19.60;54.70
13992;DHT22;7070;53.586;9.692;2023-05-29T15:25:51;19.60;54.30
13992;DHT22;7070;53.586;9.692;2023-05-29T15:28:19;19.60;54.60
13992;DHT22;7070;53.586;9.692;2023-05-29T15:30:46;19.60;54.80
13992;DHT22;7070;53.586;9.692;2023-05-29T15:33:13;19.60;54.80
13992;DHT22;7070;53.586;9.692;2023-05-29T15:35:40;19.60;55.00
13992;DHT22;7070;53.586;9.692;2023-05-29T15:38:09;19.60;55.00
13992;DHT22;7070;53.586;9.692;2023-05-29T15:40:38;19.60;55.20
13992;DHT22;7070;53.586;9.692;2023-05-29T15:43:05;19.60;55.00
13992;DHT22;7070;53.586;9.692;2023-05-29T15:45:32;19.60;55.00
13992;DHT22;7070;53.586;9.692;2023-05-29T15:47:59;19.50;55.00
13992;DHT22;7070;53.586;9.692;2023-05-29T15:50:26;19.60;55.50
13992;DHT22;7070;53.586;9.692;2023-05-29T15:52:52;19.60;55.70
13992;DHT22;7070;53.586;9.692;2023-05-29T15:55:20;19.60;55.60